createdAt,value
2023-03-03T00:01:24.720Z,46.9
2023-03-03T00:06:42.926Z,47.6
2023-03-03T00:12:00.885Z,46.9
2023-03-03T00:17:19.406Z,47.7
2023-03-03T00:22:37.871Z,46.9
2023-03-03T00:27:56.435Z,46.7
2023-03-03T00:33:14.618Z,47
2023-03-03T00:38:32.837Z,46.9
2023-03-03T00:43:50.838Z,46.7
2023-03-03T00:49:08.768Z,47.6
2023-03-03T00:54:27.235Z,47.3
2023-03-03T00:59:45.554Z,47.6
2023-03-03T01:05:04.022Z,46.8
2023-03-03T01:10:22.838Z,47.1
2023-03-03T01:15:41.591Z,47.6
2023-03-03T01:20:59.822Z,46.8
2023-03-03T01:26:18.548Z,46.9
2023-03-03T01:31:37.510Z,47.1
2023-03-03T01:36:56.158Z,47.7
2023-03-03T01:42:14.909Z,47.4
2023-03-03T01:47:33.421Z,47.8
2023-03-03T01:52:51.888Z,47.2
2023-03-03T01:58:10.661Z,48
2023-03-03T02:03:28.961Z,47.9
2023-03-03T02:08:47.736Z,47.2
2023-03-03T02:14:06.250Z,47.7
2023-03-03T02:19:24.485Z,47.1
2023-03-03T02:24:42.724Z,47.2
2023-03-03T02:30:01.482Z,47.3
2023-03-03T02:35:20.206Z,47.6
2023-03-03T02:40:38.672Z,47.1
2023-03-03T02:45:41.746Z,47.5
2023-03-03T02:51:00.254Z,47.8
2023-03-03T02:56:18.467Z,47.8
2023-03-03T03:01:37.029Z,47.3
2023-03-03T03:06:55.591Z,47.3
2023-03-03T03:12:14.047Z,48
2023-03-03T03:17:32.310Z,47.5
2023-03-03T03:22:50.319Z,48.1
2023-03-03T03:28:08.784Z,48.2
2023-03-03T03:33:27.280Z,48.4
2023-03-03T03:38:29.727Z,48
2023-03-03T03:43:47.932Z,48.1
2023-03-03T03:49:06.448Z,48.4
2023-03-03T03:54:25.261Z,48.8
2023-03-03T03:59:43.760Z,48.6
2023-03-03T04:05:02.228Z,47.8
2023-03-03T04:10:20.762Z,47.9
2023-03-03T04:15:39.357Z,48.4
2023-03-03T04:20:57.830Z,48.7
2023-03-03T04:26:16.364Z,48.6
2023-03-03T04:31:34.817Z,48.5
2023-03-03T04:36:53.577Z,48.3
2023-03-03T04:42:11.600Z,48.7
2023-03-03T04:47:29.772Z,48.2
2023-03-03T04:52:47.998Z,48.7
2023-03-03T04:58:05.953Z,48.2
2023-03-03T05:03:24.134Z,47.8
2023-03-03T05:08:42.638Z,48.5
2023-03-03T05:14:01.211Z,47.8
2023-03-03T05:19:19.964Z,47.8
2023-03-03T05:24:38.739Z,47.7
2023-03-03T05:29:57.480Z,48.4
2023-03-03T05:35:15.414Z,48.2
2023-03-03T05:40:33.332Z,47.8
2023-03-03T05:45:54.581Z,48
2023-03-03T05:51:13.337Z,49
2023-03-03T05:56:32.197Z,48.4
2023-03-03T06:01:51.221Z,47.9
2023-03-03T06:07:10.033Z,47.9
2023-03-03T06:12:28.610Z,48.2
2023-03-03T06:17:46.818Z,47.7
2023-03-03T06:23:10.987Z,47.8
2023-03-03T06:28:29.477Z,48.3
2023-03-03T06:33:48.011Z,48.5
2023-03-03T06:39:06.764Z,48
2023-03-03T06:44:29.024Z,48.5
2023-03-03T06:49:47.310Z,48.9
2023-03-03T06:55:05.775Z,48.7
2023-03-03T07:00:24.045Z,49.1
2023-03-03T07:05:42.716Z,48.4
2023-03-03T07:11:01.021Z,48
2023-03-03T07:16:19.545Z,48.6
2023-03-03T07:21:38.126Z,49.2
2023-03-03T07:26:56.310Z,49.1
2023-03-03T07:32:14.677Z,48.4
2023-03-03T07:37:33.312Z,48.6
2023-03-03T07:42:54.860Z,48.3
2023-03-03T07:48:13.634Z,47.8
2023-03-03T07:53:32.390Z,48
2023-03-03T07:58:35.406Z,48.3
2023-03-03T08:03:54.393Z,47.4
2023-03-03T08:09:12.522Z,47
2023-03-03T08:14:30.625Z,47.6
2023-03-03T08:19:49.793Z,47.2
2023-03-03T08:25:08.972Z,48.1
2023-03-03T08:30:27.236Z,47.3
2023-03-03T08:35:46.640Z,47.2
2023-03-03T08:41:04.689Z,45.3
2023-03-03T08:46:23.341Z,46.4
2023-03-03T08:51:41.934Z,46.6
2023-03-03T08:57:00.361Z,46.9
2023-03-03T09:02:18.898Z,46.9
2023-03-03T09:07:37.487Z,47
2023-03-03T09:12:59.434Z,46.6
2023-03-03T09:18:21.163Z,46.7
2023-03-03T09:23:39.945Z,47.2
2023-03-03T09:28:59.280Z,46.7
2023-03-03T09:34:18.586Z,46.4
2023-03-03T09:39:37.085Z,47
2023-03-03T09:44:56.567Z,46.8
2023-03-03T09:50:14.809Z,46.5
2023-03-03T09:55:36.677Z,48.1
2023-03-03T10:00:58.391Z,47.5
2023-03-03T10:06:16.881Z,47.5
2023-03-03T10:11:35.637Z,47.8
2023-03-03T10:16:56.723Z,47.7
2023-03-03T10:22:18.315Z,47.8
2023-03-03T10:27:36.496Z,47.5
2023-03-03T10:32:55.353Z,47.3
2023-03-03T10:38:14.846Z,47.5
2023-03-03T10:43:33.492Z,47.1
2023-03-03T10:48:54.841Z,47.2
2023-03-03T10:54:13.317Z,47.8
2023-03-03T10:59:31.254Z,48.2
2023-03-03T11:04:49.758Z,47.4
2023-03-03T11:10:08.004Z,48
2023-03-03T11:15:26.187Z,47.8
2023-03-03T11:20:44.420Z,47.9
2023-03-03T11:26:03.196Z,48.3
2023-03-03T11:31:21.909Z,46.2
2023-03-03T11:36:40.210Z,46.2
2023-03-03T11:41:58.673Z,44.3
2023-03-03T11:47:16.866Z,44.2
2023-03-03T11:52:36.726Z,45.1
2023-03-03T11:57:59.464Z,46.5
2023-03-03T12:03:20.795Z,46
2023-03-03T12:08:39.381Z,46.4
2023-03-03T12:13:57.758Z,46.3
2023-03-03T12:19:16.512Z,45.3
2023-03-03T12:24:39.267Z,46.3
2023-03-03T12:29:57.729Z,46.8
2023-03-03T12:35:16.462Z,46.8
2023-03-03T12:40:19.426Z,46.8
2023-03-03T12:45:38.219Z,47.7
2023-03-03T12:50:57.294Z,47.7
2023-03-03T12:56:16.093Z,47
2023-03-03T13:01:34.290Z,47.6
2023-03-03T13:06:52.783Z,47.3
2023-03-03T13:12:11.850Z,47.1
2023-03-03T13:17:30.324Z,48.2
2023-03-03T13:22:48.916Z,47.2
2023-03-03T13:28:07.250Z,47.7
2023-03-03T13:33:10.105Z,47.3
2023-03-03T13:38:28.595Z,47.6
2023-03-03T13:43:47.121Z,47.4
2023-03-03T13:49:05.688Z,47.6
2023-03-03T13:54:24.158Z,48.3
2023-03-03T13:59:42.467Z,47.9
2023-03-03T14:05:01.238Z,48.9
2023-03-03T14:10:19.693Z,48.8
2023-03-03T14:15:38.518Z,48
2023-03-03T14:20:56.998Z,48
2023-03-03T14:26:15.603Z,48.6
2023-03-03T14:31:34.118Z,49.5
2023-03-03T14:36:52.360Z,48.2
2023-03-03T14:42:10.866Z,48.1
2023-03-03T14:47:29.442Z,48.4
2023-03-03T14:52:48.563Z,48.8
2023-03-03T14:58:06.835Z,48
2023-03-03T15:03:25.314Z,47.7
2023-03-03T15:08:43.562Z,48.3
2023-03-03T15:14:02.048Z,48.6
2023-03-03T15:19:20.302Z,48.4
2023-03-03T15:24:38.943Z,48.2
2023-03-03T15:29:57.233Z,47.5
2023-03-03T15:35:15.849Z,48.2
2023-03-03T15:40:34.089Z,48.1
2023-03-03T15:45:52.350Z,48.2
2023-03-03T15:51:10.892Z,47.9
2023-03-03T15:56:29.630Z,48.2
2023-03-03T16:01:32.157Z,47.4
2023-03-03T16:06:50.089Z,47.6
2023-03-03T16:12:08.620Z,44.8
2023-03-03T16:17:30.319Z,46.5
2023-03-03T16:22:48.840Z,47.6
2023-03-03T16:28:07.018Z,47.7
2023-03-03T16:33:25.523Z,47.5
2023-03-03T16:38:45.162Z,47.5
2023-03-03T16:44:04.361Z,48.1
2023-03-03T16:49:22.573Z,47.4
2023-03-03T16:54:40.644Z,48
2023-03-03T16:59:59.106Z,48.2
2023-03-03T17:05:18.523Z,47.8
2023-03-03T17:10:37.297Z,48.7
2023-03-03T17:15:55.823Z,48.7
2023-03-03T17:21:04.016Z,48.1
2023-03-03T17:26:22.607Z,48.4
2023-03-03T17:31:41.500Z,48.8
2023-03-03T17:37:00.501Z,48.7
2023-03-03T17:42:20.471Z,48.7
2023-03-03T17:47:41.901Z,49.2
2023-03-03T17:53:00.246Z,49.2
2023-03-03T17:58:18.800Z,49.3
2023-03-03T18:03:37.009Z,49.1
2023-03-03T18:09:15.211Z,49.6
2023-03-03T18:14:33.706Z,47.6
2023-03-03T18:19:51.933Z,47.2
2023-03-03T18:25:13.711Z,47.7
2023-03-03T18:30:32.334Z,48.6
2023-03-03T18:35:50.894Z,48.8
2023-03-03T18:41:09.134Z,48.1
2023-03-03T18:46:27.759Z,48.1
2023-03-03T18:51:45.769Z,48.6
2023-03-03T18:57:04.261Z,48.7
2023-03-03T19:02:28.341Z,47.8
2023-03-03T19:07:49.663Z,48.1
2023-03-03T19:13:08.093Z,46.2
2023-03-03T19:18:26.880Z,47.6
2023-03-03T19:23:45.303Z,47.9
2023-03-03T19:29:03.785Z,47
2023-03-03T19:34:22.003Z,47
2023-03-03T19:39:40.587Z,47.9
2023-03-03T19:44:59.088Z,47
2023-03-03T19:50:18.114Z,47.3
2023-03-03T19:55:39.072Z,47.9
2023-03-03T20:01:00.224Z,48.3
2023-03-03T20:06:18.808Z,47.7
2023-03-03T20:11:37.520Z,47.9
2023-03-03T20:16:58.806Z,47.9
2023-03-03T20:22:18.222Z,48.6
2023-03-03T20:27:36.374Z,47.7
2023-03-03T20:32:54.839Z,47.7
2023-03-03T20:38:13.115Z,48.4
2023-03-03T20:43:31.526Z,48.4
2023-03-03T20:48:50.517Z,47.7
2023-03-03T20:54:11.940Z,48.5
2023-03-03T20:59:30.405Z,47.7
2023-03-03T21:04:49.010Z,48.2
2023-03-03T21:10:07.799Z,48.4
2023-03-03T21:15:26.253Z,47.7
2023-03-03T21:20:44.796Z,47.7
2023-03-03T21:26:03.046Z,47.9
2023-03-03T21:31:06.062Z,47.9
2023-03-03T21:36:24.281Z,47.9
2023-03-03T21:41:42.773Z,47.7
2023-03-03T21:47:01.386Z,48.5
2023-03-03T21:52:19.857Z,48.5
2023-03-03T21:57:37.839Z,47.9
2023-03-03T22:02:56.019Z,48
2023-03-03T22:08:14.796Z,48.3
2023-03-03T22:13:33.824Z,48.1
2023-03-03T22:18:52.472Z,48.7
2023-03-03T22:24:10.562Z,47.7
2023-03-03T22:29:28.719Z,47.9
2023-03-03T22:34:47.750Z,48.8
2023-03-03T22:40:06.258Z,48.2
2023-03-03T22:45:24.537Z,48.4
2023-03-03T22:50:42.746Z,48.4
2023-03-03T22:56:03.514Z,48.3
2023-03-03T23:01:22.132Z,48.5
2023-03-03T23:06:40.920Z,49
2023-03-03T23:11:59.140Z,49.2
2023-03-03T23:17:17.678Z,48.4
2023-03-03T23:22:36.638Z,48.5
2023-03-03T23:27:54.553Z,49
2023-03-03T23:33:12.857Z,49.2
2023-03-03T23:38:31.449Z,48.2
2023-03-03T23:43:49.794Z,48.9
2023-03-03T23:49:08.386Z,49.1
2023-03-03T23:54:26.582Z,49.1
2023-03-03T23:59:45.065Z,48.4
